Time;durP1;ratioP1;P1;durP2;ratioP2;P2;SDS_P1;SDS_P2;PMS_P1;PMS_P2;Temp;Humidity;BMP_temperature;BMP_pressure;BME280_temperature;BME280_humidity;BME280_pressure;Samples;Min_cycle;Max_cycle;Signal;HPM_P1;HPM_P2
2022/05/03 00:00:23;;;;;;;;;;;;;;;25.78;27.55;100696.59;5059803;28;1251;-29
2022/05/03 00:02:58;;;;;;;;;;;;;;;25.73;27.20;100690.91;5060829;28;1910;-31
2022/05/03 00:05:38;;;;;;;;;;;;;;;25.69;27.61;100695.81;5065374;28;806;-29
2022/05/03 00:08:09;;;;;;;;;;;;;;;25.69;27.37;100693.13;5055316;28;878;-29
2022/05/03 00:10:39;;;;;;;;;;;;;;;25.76;27.37;100693.25;5078899;28;973;-31
2022/05/03 00:13:15;;;;;;;;;;;;;;;25.75;27.25;100691.56;5074318;28;806;-31
2022/05/03 00:15:40;;;;;;;;;;;;;;;25.70;27.43;100696.63;5057857;28;1040;-30
2022/05/03 00:18:05;;;;;;;;;;;;;;;25.77;27.54;100685.00;5059469;28;846;-34
2022/05/03 00:20:31;;;;;;;;;;;;;;;25.76;27.34;100682.47;5067654;28;899;-33
2022/05/03 00:22:56;;;;;;;;;;;;;;;25.72;27.33;100686.53;5057144;28;1969;-29
2022/05/03 00:25:21;;;;;;;;;;;;;;;25.76;27.30;100691.41;5045820;28;821;-31
2022/05/03 00:27:47;;;;;;;;;;;;;;;25.71;27.48;100680.28;5073521;28;888;-28
2022/05/03 00:30:12;;;;;;;;;;;;;;;25.70;27.45;100685.88;5064663;28;861;-31
2022/05/03 00:32:39;;;;;;;;;;;;;;;25.69;27.69;100685.03;5059392;28;774;-32
2022/05/03 00:35:04;;;;;;;;;;;;;;;25.71;27.55;100677.59;5068964;28;824;-35
2022/05/03 00:37:29;;;;;;;;;;;;;;;25.75;27.59;100678.94;5059378;28;886;-33
2022/05/03 00:39:55;;;;;;;;;;;;;;;25.75;27.35;100670.88;5074991;28;893;-30
2022/05/03 00:42:25;;;;;;;;;;;;;;;25.78;27.28;100667.81;5077881;28;1960;-30
2022/05/03 00:45:03;;;;;;;;;;;;;;;25.79;27.46;100665.97;5059300;28;861;-34
2022/05/03 00:47:41;;;;;;;;;;;;;;;25.74;27.50;100660.25;5059365;28;844;-31
2022/05/03 00:50:21;;;;;;;;;;;;;;;25.66;27.64;100656.59;5064702;28;869;-29
2022/05/03 00:52:53;;;;;;;;;;;;;;;25.69;27.69;100650.03;5071460;28;854;-29
2022/05/03 00:55:27;;;;;;;;;;;;;;;25.67;27.60;100657.44;5059119;28;917;-31
2022/05/03 00:58:12;;;;;;;;;;;;;;;25.74;27.48;100658.38;5077429;28;1426;-30
2022/05/03 01:00:42;;;;;;;;;;;;;;;25.74;27.68;100649.50;5077723;28;1024;-32
2022/05/03 01:03:15;;;;;;;;;;;;;;;25.72;27.80;100655.06;5059778;28;1902;-31
2022/05/03 01:05:59;;;;;;;;;;;;;;;25.71;27.79;100652.53;5074111;28;898;-30
2022/05/03 01:08:57;;;;;;;;;;;;;;;25.69;27.57;100647.31;5058606;28;1064;-31
2022/05/03 01:11:32;;;;;;;;;;;;;;;25.80;27.48;100648.78;5013808;28;1310;-31
2022/05/03 01:14:05;;;;;;;;;;;;;;;25.74;27.66;100650.31;5042791;28;989;-33
2022/05/03 01:16:34;;;;;;;;;;;;;;;25.75;27.73;100651.16;5066286;28;869;-32
2022/05/03 01:19:00;;;;;;;;;;;;;;;25.75;27.76;100648.47;5067490;28;836;-31
2022/05/03 01:21:45;;;;;;;;;;;;;;;25.76;27.41;100645.59;5066622;28;1961;-29
2022/05/03 01:24:29;;;;;;;;;;;;;;;25.76;27.59;100644.75;5070916;28;810;-36
2022/05/03 01:27:03;;;;;;;;;;;;;;;25.69;27.57;100641.94;5057958;28;866;-33
2022/05/03 01:29:32;;;;;;;;;;;;;;;25.67;27.90;100644.78;5063324;28;762;-28
2022/05/03 01:32:07;;;;;;;;;;;;;;;25.73;28.01;100642.41;5061247;28;778;-29
2022/05/03 01:34:33;;;;;;;;;;;;;;;25.73;27.72;100650.47;5061831;28;833;-30
2022/05/03 01:37:16;;;;;;;;;;;;;;;25.68;27.67;100648.31;5076932;28;902;-30
2022/05/03 01:40:00;;;;;;;;;;;;;;;25.74;27.77;100644.91;5076811;28;853;-33
2022/05/03 01:42:28;;;;;;;;;;;;;;;25.68;27.66;100649.19;5070772;28;1969;-33
2022/05/03 01:44:59;;;;;;;;;;;;;;;25.75;27.71;100643.06;5062695;28;813;-30
2022/05/03 01:47:43;;;;;;;;;;;;;;;25.78;27.77;100646.25;5040541;28;821;-30
2022/05/03 01:50:21;;;;;;;;;;;;;;;25.75;27.80;100643.91;5063757;28;934;-31
2022/05/03 01:53:05;;;;;;;;;;;;;;;25.80;27.64;100640.69;5058125;28;1564;-29
2022/05/03 01:55:42;;;;;;;;;;;;;;;25.67;27.75;100636.69;5070552;28;1610;-31
2022/05/03 01:58:07;;;;;;;;;;;;;;;25.75;27.71;100640.38;5076563;28;850;-30
2022/05/03 02:00:36;;;;;;;;;;;;;;;25.71;27.74;100634.50;5076530;28;999;-28
2022/05/03 02:03:10;;;;;;;;;;;;;;;25.72;27.97;100636.19;5076567;28;1976;-29
2022/05/03 02:05:54;;;;;;;;;;;;;;;25.79;27.57;100636.34;5068500;28;1214;-29
2022/05/03 02:08:20;;;;;;;;;;;;;;;25.76;27.63;100637.50;5075201;28;750;-32
2022/05/03 02:11:02;;;;;;;;;;;;;;;25.73;27.93;100634.31;5068364;28;966;-34
2022/05/03 02:16:42;;;;;;;;;;;;;;;25.66;27.78;100626.94;5020334;28;1147;-31
2022/05/03 02:19:10;;;;;;;;;;;;;;;25.70;27.81;100630.13;5065747;28;896;-31
2022/05/03 02:22:02;;;;;;;;;;;;;;;25.79;27.82;100631.75;5045726;28;1898;-30
2022/05/03 02:24:27;;;;;;;;;;;;;;;25.73;27.91;100629.78;5022956;28;996;-34
2022/05/03 02:27:07;;;;;;;;;;;;;;;25.80;27.75;100624.53;5038619;28;846;-32
2022/05/03 02:29:45;;;;;;;;;;;;;;;25.76;27.63;100628.56;5039222;28;727;-32
2022/05/03 02:32:11;;;;;;;;;;;;;;;25.73;27.79;100626.25;5057253;28;779;-33
2022/05/03 02:34:37;;;;;;;;;;;;;;;25.66;28.08;100631.50;5071103;28;823;-30
2022/05/03 02:37:18;;;;;;;;;;;;;;;25.75;27.82;100635.84;5057749;28;914;-30
2022/05/03 02:39:45;;;;;;;;;;;;;;;25.67;27.86;100634.00;5070378;28;747;-33
2022/05/03 02:42:11;;;;;;;;;;;;;;;25.78;27.60;100630.09;5057515;28;1894;-30
2022/05/03 02:44:36;;;;;;;;;;;;;;;25.81;27.89;100636.97;5058530;28;998;-33
2022/05/03 02:47:03;;;;;;;;;;;;;;;25.73;27.90;100635.16;5056871;28;1087;-32
2022/05/03 02:49:28;;;;;;;;;;;;;;;25.79;27.96;100642.53;5066827;28;1239;-29
2022/05/03 02:52:12;;;;;;;;;;;;;;;25.73;27.90;100642.41;5068279;28;1073;-31
2022/05/03 02:54:48;;;;;;;;;;;;;;;25.75;28.09;100643.06;5074056;28;1219;-30
2022/05/03 02:57:16;;;;;;;;;;;;;;;25.32;27.84;100646.94;5054809;28;770;-29
2022/05/03 03:03:09;;;;;;;;;;;;;;;24.45;29.18;100646.50;4975245;28;1990;-30
2022/05/03 03:05:57;;;;;;;;;;;;;;;24.23;29.46;100643.47;5060496;28;976;-30
2022/05/03 03:08:23;;;;;;;;;;;;;;;24.25;29.64;100644.16;5058334;28;1554;-29
2022/05/03 03:11:07;;;;;;;;;;;;;;;24.21;29.67;100640.09;5057431;28;898;-30
2022/05/03 03:13:38;;;;;;;;;;;;;;;24.08;29.88;100635.19;5056357;28;779;-31
2022/05/03 03:16:05;;;;;;;;;;;;;;;24.06;29.96;100632.66;5056368;28;798;-31
2022/05/03 03:18:30;;;;;;;;;;;;;;;24.01;29.91;100634.16;5047122;28;877;-31
2022/05/03 03:20:56;;;;;;;;;;;;;;;23.96;30.03;100635.50;5055780;28;1158;-30
2022/05/03 03:23:24;;;;;;;;;;;;;;;23.89;30.08;100639.84;5068480;28;1897;-31
2022/05/03 03:25:49;;;;;;;;;;;;;;;23.90;30.18;100636.16;5066740;28;1353;-28
2022/05/03 03:28:17;;;;;;;;;;;;;;;23.79;30.30;100639.97;5038556;28;799;-29
2022/05/03 03:30:42;;;;;;;;;;;;;;;23.88;30.15;100642.69;5040992;28;794;-31
2022/05/03 03:33:08;;;;;;;;;;;;;;;23.93;30.17;100641.19;5058023;28;777;-27
2022/05/03 03:35:33;;;;;;;;;;;;;;;23.95;30.13;100649.09;5055760;28;1046;-30
2022/05/03 03:38:00;;;;;;;;;;;;;;;23.76;30.32;100643.00;5054064;28;967;-30
2022/05/03 03:40:26;;;;;;;;;;;;;;;23.74;30.60;100645.00;5042618;28;799;-33
2022/05/03 03:42:51;;;;;;;;;;;;;;;23.67;30.70;100650.16;5060176;28;1898;-30
2022/05/03 03:45:17;;;;;;;;;;;;;;;23.58;30.69;100652.00;5060229;28;965;-28
2022/05/03 03:47:43;;;;;;;;;;;;;;;23.65;30.77;100654.88;5068300;28;1295;-27
2022/05/03 03:50:08;;;;;;;;;;;;;;;23.75;31.12;100657.44;5075956;28;1401;-33
2022/05/03 03:52:34;;;;;;;;;;;;;;;24.12;30.58;100652.66;5072187;28;1423;-30
2022/05/03 03:55:00;;;;;;;;;;;;;;;24.37;29.88;100654.56;5073990;28;1374;-31
2022/05/03 03:57:25;;;;;;;;;;;;;;;24.42;29.77;100657.59;5072582;28;1414;-29
2022/05/03 03:59:50;;;;;;;;;;;;;;;24.57;29.56;100641.66;5064252;28;1052;-29
2022/05/03 04:02:16;;;;;;;;;;;;;;;24.57;29.60;100638.97;5064369;28;1961;-33
2022/05/03 04:04:42;;;;;;;;;;;;;;;24.57;29.44;100645.16;5075828;28;884;-30
2022/05/03 04:07:07;;;;;;;;;;;;;;;24.39;29.69;100649.88;5065089;28;738;-28
2022/05/03 04:09:32;;;;;;;;;;;;;;;24.53;29.49;100649.22;5059314;28;854;-31
2022/05/03 04:11:59;;;;;;;;;;;;;;;24.53;29.70;100656.41;5066640;28;1421;-31
2022/05/03 04:14:24;;;;;;;;;;;;;;;24.66;29.40;100650.53;5073996;28;1354;-30
2022/05/03 04:16:49;;;;;;;;;;;;;;;24.54;29.73;100650.06;5064865;28;1562;-29
2022/05/03 04:19:15;;;;;;;;;;;;;;;24.56;29.91;100653.41;5067497;28;1244;-29
2022/05/03 04:21:40;;;;;;;;;;;;;;;24.62;29.83;100662.66;5068499;28;1894;-32
2022/05/03 04:24:06;;;;;;;;;;;;;;;24.58;30.05;100652.22;5069781;28;1276;-29
2022/05/03 04:26:31;;;;;;;;;;;;;;;24.62;29.90;100651.91;5076575;28;1148;-33
2022/05/03 04:28:57;;;;;;;;;;;;;;;24.69;29.83;100655.59;5076077;28;1163;-31
2022/05/03 04:31:29;;;;;;;;;;;;;;;24.74;29.90;100649.72;5063233;28;1242;-34
2022/05/03 04:33:54;;;;;;;;;;;;;;;24.80;29.71;100651.72;5058447;28;895;-31
2022/05/03 04:36:20;;;;;;;;;;;;;;;24.77;29.88;100657.44;5065300;28;912;-32
2022/05/03 04:38:46;;;;;;;;;;;;;;;24.82;29.89;100658.59;5058768;28;915;-30
2022/05/03 04:41:11;;;;;;;;;;;;;;;24.98;29.95;100664.16;5065020;28;878;-32
2022/05/03 04:43:36;;;;;;;;;;;;;;;24.86;30.13;100661.78;5058362;28;1968;-32
2022/05/03 04:46:02;;;;;;;;;;;;;;;24.85;29.67;100667.34;5063526;28;874;-30
2022/05/03 04:48:27;;;;;;;;;;;;;;;24.83;29.83;100675.59;5060187;28;1175;-29
2022/05/03 04:50:52;;;;;;;;;;;;;;;24.90;29.90;100663.19;5075665;28;1224;-30
2022/05/03 04:53:18;;;;;;;;;;;;;;;24.89;29.91;100664.13;5073016;28;1228;-28
2022/05/03 04:55:43;;;;;;;;;;;;;;;24.97;29.89;100662.50;5072692;28;1250;-30
2022/05/03 04:58:08;;;;;;;;;;;;;;;24.99;29.75;100658.59;5075828;28;1496;-29
2022/05/03 05:00:34;;;;;;;;;;;;;;;24.98;30.07;100651.56;5073355;28;1278;-31
2022/05/03 05:02:59;;;;;;;;;;;;;;;25.03;29.94;100661.78;5077623;28;1981;-33
2022/05/03 05:05:24;;;;;;;;;;;;;;;25.07;29.90;100658.59;5072420;28;1460;-30
2022/05/03 05:07:50;;;;;;;;;;;;;;;25.01;30.05;100659.28;5065314;28;814;-33
2022/05/03 05:10:24;;;;;;;;;;;;;;;25.22;29.73;100660.59;5058362;28;898;-28
2022/05/03 05:12:50;;;;;;;;;;;;;;;25.26;29.80;100655.69;5058649;28;1548;-29
2022/05/03 05:15:15;;;;;;;;;;;;;;;25.23;29.69;100650.66;5058466;28;838;-28
2022/05/03 05:17:41;;;;;;;;;;;;;;;25.34;29.39;100658.34;5057440;28;834;-32
2022/05/03 05:20:06;;;;;;;;;;;;;;;25.21;29.41;100653.50;5063397;28;826;-30
2022/05/03 05:22:32;;;;;;;;;;;;;;;25.17;29.64;100657.56;5057802;28;1910;-32
2022/05/03 05:24:57;;;;;;;;;;;;;;;25.06;29.79;100656.06;5074018;28;1160;-29
2022/05/03 05:27:22;;;;;;;;;;;;;;;25.09;29.68;100658.41;5076687;28;1317;-29
2022/05/03 05:29:48;;;;;;;;;;;;;;;25.01;29.87;100655.75;5068304;28;1255;-29
2022/05/03 05:32:13;;;;;;;;;;;;;;;25.00;29.96;100662.13;5063939;28;755;-31
2022/05/03 05:34:38;;;;;;;;;;;;;;;25.09;29.80;100654.91;5067463;28;951;-28
2022/05/03 05:37:03;;;;;;;;;;;;;;;24.99;29.83;100666.69;5062503;28;1003;-29
2022/05/03 05:39:29;;;;;;;;;;;;;;;25.04;29.71;100666.19;5057573;28;833;-33
2022/05/03 05:41:56;;;;;;;;;;;;;;;25.03;29.81;100667.19;5057708;28;1951;-28
2022/05/03 05:44:21;;;;;;;;;;;;;;;25.02;29.83;100665.50;5058831;28;949;-30
2022/05/03 05:46:46;;;;;;;;;;;;;;;25.01;30.07;100663.81;5062731;28;826;-29
2022/05/03 05:49:12;;;;;;;;;;;;;;;25.04;30.00;100669.69;5061360;28;1115;-30
2022/05/03 05:51:37;;;;;;;;;;;;;;;25.01;29.89;100670.03;5075022;28;1286;-30
2022/05/03 05:54:02;;;;;;;;;;;;;;;25.01;30.13;100670.03;5076244;28;1447;-31
2022/05/03 05:56:28;;;;;;;;;;;;;;;25.02;29.88;100669.06;5076142;28;1098;-30
2022/05/03 05:58:53;;;;;;;;;;;;;;;24.99;30.01;100657.78;5076277;28;1108;-30
2022/05/03 06:01:45;;;;;;;;;;;;;;;25.00;29.74;100668.38;5076584;28;1202;-30
2022/05/03 06:04:10;;;;;;;;;;;;;;;24.87;30.21;100663.50;5054712;28;1673;-29
2022/05/03 06:06:36;;;;;;;;;;;;;;;24.96;30.09;100664.31;5061583;28;850;-31
2022/05/03 06:09:04;;;;;;;;;;;;;;;24.99;29.90;100668.53;5057094;28;892;-29
2022/05/03 06:11:29;;;;;;;;;;;;;;;25.08;29.81;100664.81;5064326;28;876;-29
2022/05/03 06:13:55;;;;;;;;;;;;;;;24.91;29.90;100666.69;5057456;28;840;-30
2022/05/03 06:16:20;;;;;;;;;;;;;;;24.96;29.82;100666.19;5057074;28;807;-30
2022/05/03 06:18:46;;;;;;;;;;;;;;;24.91;29.84;100666.69;5057605;28;1090;-32
2022/05/03 06:21:11;;;;;;;;;;;;;;;25.01;29.59;100669.19;5069410;28;872;-33
2022/05/03 06:23:36;;;;;;;;;;;;;;;25.02;29.66;100665.50;5063413;28;1957;-30
2022/05/03 06:26:05;;;;;;;;;;;;;;;25.02;29.44;100668.19;5076491;28;803;-29
2022/05/03 06:28:31;;;;;;;;;;;;;;;25.04;29.37;100661.63;5076458;28;941;-32
2022/05/03 06:30:56;;;;;;;;;;;;;;;25.07;28.97;100663.16;5075851;28;1270;-29
2022/05/03 06:33:21;;;;;;;;;;;;;;;25.04;29.10;100664.31;5076045;28;965;-29
2022/05/03 06:35:47;;;;;;;;;;;;;;;25.16;28.93;100663.94;5068335;28;981;-28
2022/05/03 06:38:12;;;;;;;;;;;;;;;25.03;28.97;100667.19;5073948;28;1012;-32
2022/05/03 06:40:37;;;;;;;;;;;;;;;25.17;28.94;100669.16;5070453;28;1099;-29
2022/05/03 06:43:02;;;;;;;;;;;;;;;25.39;29.29;100672.13;5059648;28;1897;-28
2022/05/03 06:45:28;;;;;;;;;;;;;;;25.49;29.31;100671.94;5071033;28;1037;-29
2022/05/03 06:47:53;;;;;;;;;;;;;;;25.48;29.74;100669.41;5060389;28;912;-30
2022/05/03 06:50:18;;;;;;;;;;;;;;;25.64;29.50;100665.88;5065135;28;868;-29
2022/05/03 06:52:44;;;;;;;;;;;;;;;25.63;29.49;100675.78;5060108;28;846;-31
2022/05/03 06:55:11;;;;;;;;;;;;;;;25.63;29.39;100666.88;5075519;28;793;-29
2022/05/03 06:57:36;;;;;;;;;;;;;;;25.65;29.43;100664.84;5075683;28;810;-30
2022/05/03 07:00:04;;;;;;;;;;;;;;;25.71;29.48;100669.53;5069669;28;1214;-30
2022/05/03 07:02:30;;;;;;;;;;;;;;;25.69;29.21;100671.56;5063689;28;1902;-28
2022/05/03 07:04:56;;;;;;;;;;;;;;;25.73;29.38;100674.72;5065377;28;953;-33
2022/05/03 07:07:21;;;;;;;;;;;;;;;25.69;29.36;100668.88;5059146;28;806;-31
2022/05/03 07:09:47;;;;;;;;;;;;;;;25.77;29.47;100676.06;5056591;28;802;-29
2022/05/03 07:12:12;;;;;;;;;;;;;;;25.79;29.31;100680.25;5058115;28;1128;-30
2022/05/03 07:14:37;;;;;;;;;;;;;;;25.82;29.42;100678.25;5072417;28;1361;-30
2022/05/03 07:17:04;;;;;;;;;;;;;;;25.84;29.39;100687.81;5064605;28;810;-30
2022/05/03 07:24:56;;;;;;;;;;;;;;;25.80;29.31;100691.88;5069256;28;977;-33
2022/05/03 07:27:22;;;;;;;;;;;;;;;25.84;29.38;100684.28;5071205;28;966;-30
2022/05/03 07:29:47;;;;;;;;;;;;;;;25.94;29.25;100695.72;5063394;28;853;-28
2022/05/03 07:32:12;;;;;;;;;;;;;;;25.94;29.23;100689.47;5067624;28;809;-29
2022/05/03 07:34:37;;;;;;;;;;;;;;;26.02;29.20;100692.13;5074854;28;1011;-30
2022/05/03 07:37:03;;;;;;;;;;;;;;;26.00;29.02;100697.69;5057707;28;862;-30
2022/05/03 07:39:30;;;;;;;;;;;;;;;26.07;29.08;100699.66;5062675;28;766;-33
2022/05/03 07:41:55;;;;;;;;;;;;;;;26.05;28.96;100705.25;5056064;28;1898;-28
2022/05/03 07:44:21;;;;;;;;;;;;;;;26.08;28.95;100707.56;5055850;28;885;-33
2022/05/03 07:46:46;;;;;;;;;;;;;;;26.15;28.97;100708.56;5056087;28;849;-29
2022/05/03 07:49:11;;;;;;;;;;;;;;;26.12;28.96;100714.31;5059415;28;850;-30
2022/05/03 07:51:39;;;;;;;;;;;;;;;26.15;28.86;100708.56;5061827;28;812;-30
2022/05/03 07:54:04;;;;;;;;;;;;;;;26.08;28.89;100709.41;5059593;28;905;-29
2022/05/03 07:56:29;;;;;;;;;;;;;;;26.13;28.66;100713.28;5055637;28;913;-31
2022/05/03 07:58:55;;;;;;;;;;;;;;;26.14;29.14;100717.63;5061718;28;1001;-31
2022/05/03 08:01:20;;;;;;;;;;;;;;;26.06;29.13;100720.38;5060709;28;1250;-33
2022/05/03 08:03:45;;;;;;;;;;;;;;;26.09;28.80;100721.91;5056523;28;1969;-34
2022/05/03 08:06:10;;;;;;;;;;;;;;;26.16;28.84;100726.41;5067644;28;782;-32
2022/05/03 08:08:36;;;;;;;;;;;;;;;26.11;28.72;100725.28;5055921;28;794;-29
2022/05/03 08:11:01;;;;;;;;;;;;;;;26.13;28.86;100721.38;5055601;28;849;-31
2022/05/03 08:13:26;;;;;;;;;;;;;;;26.04;28.87;100725.13;5055776;28;779;-30
2022/05/03 08:15:53;;;;;;;;;;;;;;;26.03;29.04;100720.75;5055322;28;801;-32
2022/05/03 08:18:18;;;;;;;;;;;;;;;26.07;28.92;100721.22;5062363;28;1072;-30
2022/05/03 08:20:44;;;;;;;;;;;;;;;26.00;29.24;100721.09;5065730;28;840;-33
2022/05/03 08:23:09;;;;;;;;;;;;;;;26.00;29.08;100724.63;5059247;28;1906;-33
2022/05/03 08:25:37;;;;;;;;;;;;;;;25.94;29.19;100714.56;5059607;28;965;-29
2022/05/03 08:28:02;;;;;;;;;;;;;;;25.97;29.14;100721.44;5059865;28;821;-32
2022/05/03 08:30:27;;;;;;;;;;;;;;;25.96;29.04;100722.47;5063597;28;758;-33
2022/05/03 08:32:53;;;;;;;;;;;;;;;25.99;29.18;100724.81;5060579;28;909;-29
2022/05/03 08:35:21;;;;;;;;;;;;;;;26.11;28.94;100720.69;5065665;28;891;-32
2022/05/03 08:43:28;;;;;;;;;;;;;;;26.01;29.24;100720.06;5003151;28;2026;-29
2022/05/03 08:45:53;;;;;;;;;;;;;;;25.92;29.40;100722.00;5059068;28;882;-29
2022/05/03 08:48:18;;;;;;;;;;;;;;;25.97;29.24;100711.53;5041072;28;850;-28
2022/05/03 08:50:44;;;;;;;;;;;;;;;26.10;28.98;100718.19;5047433;28;1401;-32
2022/05/03 08:53:10;;;;;;;;;;;;;;;26.23;28.82;100714.91;5058568;28;1033;-30
2022/05/03 08:55:35;;;;;;;;;;;;;;;26.14;28.98;100716.81;5061110;28;897;-29
2022/05/03 08:58:00;;;;;;;;;;;;;;;26.25;28.64;100718.25;5070591;28;1077;-32
2022/05/03 09:00:26;;;;;;;;;;;;;;;26.12;28.80;100725.09;5076706;28;1162;-34
2022/05/03 09:02:54;;;;;;;;;;;;;;;26.21;29.02;100720.47;5077894;28;1957;-32
2022/05/03 09:05:20;;;;;;;;;;;;;;;26.26;28.94;100720.78;5071162;28;895;-29
2022/05/03 09:07:49;;;;;;;;;;;;;;;26.32;28.72;100718.41;5058342;28;1085;-29
2022/05/03 09:10:15;;;;;;;;;;;;;;;26.29;28.84;100723.13;5076496;28;1200;-31
2022/05/03 09:12:42;;;;;;;;;;;;;;;26.26;28.56;100726.19;5077810;28;1219;-30
2022/05/03 09:15:07;;;;;;;;;;;;;;;26.15;28.65;100718.50;5075058;28;1183;-32
2022/05/03 09:17:33;;;;;;;;;;;;;;;26.35;28.66;100731.56;5077664;28;1071;-30
2022/05/03 09:19:58;;;;;;;;;;;;;;;26.37;28.79;100729.53;5076995;28;1194;-30
2022/05/03 09:25:27;;;;;;;;;;;;;;;26.47;28.38;100727.44;4948615;29;999;-31
2022/05/03 09:27:59;;;;;;;;;;;;;;;26.41;28.65;100720.03;4958026;29;1000;-29
2022/05/03 09:30:25;;;;;;;;;;;;;;;26.32;28.51;100732.72;5009477;28;1048;-28
2022/05/03 09:32:52;;;;;;;;;;;;;;;26.39;28.55;100722.09;5057343;28;1100;-30
2022/05/03 09:35:33;;;;;;;;;;;;;;;26.56;28.31;100725.50;5075417;28;1096;-29
2022/05/03 09:37:59;;;;;;;;;;;;;;;26.50;28.54;100721.69;5069919;28;1165;-32
2022/05/03 09:40:25;;;;;;;;;;;;;;;26.54;28.07;100719.47;5077205;28;923;-31
2022/05/03 09:42:54;;;;;;;;;;;;;;;26.50;28.49;100716.28;5045474;28;1959;-30
2022/05/03 09:45:23;;;;;;;;;;;;;;;26.47;28.35;100711.25;5058304;28;1057;-33
2022/05/03 09:47:49;;;;;;;;;;;;;;;26.52;28.31;100718.81;5069635;28;891;-32
2022/05/03 09:50:24;;;;;;;;;;;;;;;26.39;28.49;100708.63;5064728;28;815;-29
2022/05/03 09:52:50;;;;;;;;;;;;;;;26.39;28.63;100711.31;5057824;28;766;-32
2022/05/03 09:55:16;;;;;;;;;;;;;;;26.48;28.32;100712.91;5057397;28;844;-34
2022/05/03 09:57:41;;;;;;;;;;;;;;;26.32;28.86;100702.22;5039274;28;1507;-28
2022/05/03 10:00:07;;;;;;;;;;;;;;;26.25;28.67;100704.78;5065826;28;1118;-31
2022/05/03 10:02:33;;;;;;;;;;;;;;;26.29;28.42;100701.53;5057800;28;1914;-29
2022/05/03 10:04:58;;;;;;;;;;;;;;;26.32;28.81;100699.50;5049582;28;1418;-33
2022/05/03 10:07:24;;;;;;;;;;;;;;;26.37;28.58;100694.47;5077147;28;821;-29
2022/05/03 10:09:49;;;;;;;;;;;;;;;26.51;28.25;100695.53;5076493;28;818;-30
2022/05/03 10:12:15;;;;;;;;;;;;;;;26.58;28.43;100685.69;5075891;28;1048;-29
2022/05/03 10:14:44;;;;;;;;;;;;;;;26.65;28.27;100685.81;5068972;28;990;-32
2022/05/03 10:20:36;;;;;;;;;;;;;;;26.61;27.58;100673.72;5054089;28;1140;-32
2022/05/03 10:23:01;;;;;;;;;;;;;;;27.10;27.31;100674.28;5056259;28;1926;-31
2022/05/03 10:25:48;;;;;;;;;;;;;;;27.28;27.33;100673.13;5073967;28;1497;-33
2022/05/03 10:28:14;;;;;;;;;;;;;;;27.18;27.42;100667.97;5065151;28;1160;-29
2022/05/03 10:30:39;;;;;;;;;;;;;;;27.57;27.97;100672.25;5042173;28;994;-28
2022/05/03 10:33:31;;;;;;;;;;;;;;;27.33;27.38;100660.72;5044016;28;1490;-34
2022/05/03 10:35:56;;;;;;;;;;;;;;;27.41;27.27;100661.66;5058317;28;1789;-30
2022/05/03 10:38:37;;;;;;;;;;;;;;;27.30;27.67;100657.53;5069743;28;1115;-33
2022/05/03 10:41:05;;;;;;;;;;;;;;;27.36;27.70;100665.72;5069931;28;1247;-30
2022/05/03 10:43:30;;;;;;;;;;;;;;;27.36;27.70;100659.53;5064921;28;1970;-32
2022/05/03 10:45:56;;;;;;;;;;;;;;;27.28;28.20;100659.63;5064392;28;1445;-31
2022/05/03 10:48:28;;;;;;;;;;;;;;;27.18;27.97;100658.00;5065454;28;1262;-28
2022/05/03 10:51:00;;;;;;;;;;;;;;;27.21;28.02;100651.41;5068218;28;1212;-31
2022/05/03 10:53:27;;;;;;;;;;;;;;;27.10;28.09;100655.41;5066446;28;1168;-27
2022/05/03 10:56:09;;;;;;;;;;;;;;;27.22;28.50;100656.63;5059920;28;1437;-32
2022/05/03 10:58:35;;;;;;;;;;;;;;;27.06;28.45;100641.44;5062932;28;1231;-28
2022/05/03 11:01:03;;;;;;;;;;;;;;;27.26;28.91;100651.66;5064937;28;1171;-32
2022/05/03 11:03:29;;;;;;;;;;;;;;;27.37;28.68;100644.97;5066975;28;1975;-32
2022/05/03 11:06:12;;;;;;;;;;;;;;;26.88;28.67;100637.19;5067695;28;1061;-29
2022/05/03 11:08:51;;;;;;;;;;;;;;;26.70;28.79;100636.69;5066979;28;1212;-30
2022/05/03 11:11:39;;;;;;;;;;;;;;;27.22;29.05;100634.19;5043553;28;1383;-31
2022/05/03 11:14:15;;;;;;;;;;;;;;;26.97;28.75;100637.97;5062377;28;1933;-29
2022/05/03 11:16:40;;;;;;;;;;;;;;;26.67;28.97;100628.97;5065622;28;889;-30
2022/05/03 11:19:09;;;;;;;;;;;;;;;26.57;29.00;100631.94;5070341;28;1442;-32
2022/05/03 11:21:34;;;;;;;;;;;;;;;26.71;29.24;100628.41;5075566;28;1898;-33
2022/05/03 11:24:00;;;;;;;;;;;;;;;27.03;28.47;100622.91;5068597;28;1358;-36
2022/05/03 11:26:26;;;;;;;;;;;;;;;27.17;28.52;100623.09;5070125;28;825;-35
2022/05/03 11:28:51;;;;;;;;;;;;;;;27.23;28.76;100617.78;5066682;28;1401;-31
2022/05/03 11:31:20;;;;;;;;;;;;;;;26.86;28.20;100614.13;5055936;28;806;-30
2022/05/03 11:33:51;;;;;;;;;;;;;;;26.77;28.48;100618.75;5057009;28;954;-32
2022/05/03 11:36:17;;;;;;;;;;;;;;;26.72;28.42;100613.06;5071755;28;1315;-30
2022/05/03 11:38:42;;;;;;;;;;;;;;;26.59;28.43;100619.91;5070854;28;1488;-35
2022/05/03 11:41:09;;;;;;;;;;;;;;;26.57;28.67;100624.69;5062462;28;1516;-34
2022/05/03 11:43:34;;;;;;;;;;;;;;;26.44;28.91;100628.00;5072860;28;1964;-33
2022/05/03 11:46:00;;;;;;;;;;;;;;;26.35;28.79;100623.69;5074253;28;1397;-30
2022/05/03 11:48:25;;;;;;;;;;;;;;;26.30;29.04;100621.50;5074141;28;1378;-31
2022/05/03 11:56:24;;;;;;;;;;;;;;;26.33;28.79;100623.00;5060881;28;632;-36
2022/05/03 11:58:50;;;;;;;;;;;;;;;26.27;28.80;100621.84;5063828;28;1013;-30
2022/05/03 12:01:15;;;;;;;;;;;;;;;26.32;29.14;100626.72;5077968;28;1152;-32
2022/05/03 12:03:48;;;;;;;;;;;;;;;26.25;29.18;100622.03;5079043;28;2038;-31
2022/05/03 12:06:13;;;;;;;;;;;;;;;26.26;28.88;100620.16;5059712;28;789;-34
2022/05/03 12:08:38;;;;;;;;;;;;;;;26.24;29.22;100623.03;5066323;28;936;-31
2022/05/03 12:11:03;;;;;;;;;;;;;;;26.31;28.90;100623.16;5059671;28;771;-35
2022/05/03 12:13:30;;;;;;;;;;;;;;;26.26;29.01;100623.72;5059745;28;1053;-32
2022/05/03 12:16:01;;;;;;;;;;;;;;;26.26;29.42;100617.47;5059361;28;984;-31
2022/05/03 12:18:30;;;;;;;;;;;;;;;26.34;29.08;100609.34;5064002;28;862;-30
2022/05/03 12:20:57;;;;;;;;;;;;;;;26.19;29.30;100614.69;5072470;28;873;-30
2022/05/03 12:23:22;;;;;;;;;;;;;;;26.17;29.20;100628.31;5059210;28;1906;-32
2022/05/03 12:25:49;;;;;;;;;;;;;;;26.24;29.14;100633.84;5058964;28;862;-35
2022/05/03 12:28:14;;;;;;;;;;;;;;;26.31;28.99;100627.75;5065523;28;1314;-34
2022/05/03 12:30:40;;;;;;;;;;;;;;;26.28;28.96;100623.53;5077363;28;802;-32
2022/05/03 12:33:07;;;;;;;;;;;;;;;26.27;29.54;100621.84;5068245;28;804;-32
2022/05/03 12:35:33;;;;;;;;;;;;;;;26.33;29.08;100628.41;5067211;28;877;-33
2022/05/03 12:37:58;;;;;;;;;;;;;;;26.23;29.22;100620.53;5068388;28;826;-30
2022/05/03 12:40:25;;;;;;;;;;;;;;;26.25;29.23;100621.19;5041009;28;1297;-32
2022/05/03 12:42:50;;;;;;;;;;;;;;;26.37;28.84;100633.28;5059022;28;1949;-35
2022/05/03 12:45:19;;;;;;;;;;;;;;;26.41;29.16;100633.72;5065063;28;908;-31
2022/05/03 12:47:44;;;;;;;;;;;;;;;26.35;29.25;100632.63;5059087;28;850;-33
2022/05/03 12:50:10;;;;;;;;;;;;;;;26.28;29.56;100632.47;5067651;28;845;-33
2022/05/03 12:52:35;;;;;;;;;;;;;;;26.30;29.40;100632.28;5067752;28;1421;-31
2022/05/03 12:55:01;;;;;;;;;;;;;;;26.36;29.21;100631.59;5067854;28;1132;-30
2022/05/03 13:00:11;;;;;;;;;;;;;;;26.28;29.18;100626.22;5073976;28;1150;-34
2022/05/03 13:02:37;;;;;;;;;;;;;;;26.18;29.35;100621.06;5062331;28;1956;-34
2022/05/03 13:05:04;;;;;;;;;;;;;;;26.17;29.25;100627.50;5068734;28;1370;-35
2022/05/03 13:07:30;;;;;;;;;;;;;;;26.14;29.77;100630.56;5075038;28;1410;-34
2022/05/03 13:09:55;;;;;;;;;;;;;;;26.24;29.31;100627.63;5073332;28;1493;-34
2022/05/03 13:12:20;;;;;;;;;;;;;;;26.18;29.54;100629.16;5068626;28;1401;-30
2022/05/03 13:14:46;;;;;;;;;;;;;;;26.17;29.33;100636.41;5070954;28;1331;-33
2022/05/03 13:17:13;;;;;;;;;;;;;;;26.10;29.84;100634.63;5060541;28;1402;-33
2022/05/03 13:19:38;;;;;;;;;;;;;;;26.15;29.64;100634.91;5066587;28;1374;-31
2022/05/03 13:22:03;;;;;;;;;;;;;;;26.15;29.59;100632.22;5065380;28;1910;-33
2022/05/03 13:24:29;;;;;;;;;;;;;;;26.08;29.73;100633.94;5072255;28;874;-32
2022/05/03 13:26:54;;;;;;;;;;;;;;;26.23;29.36;100637.56;5077319;28;850;-30
2022/05/03 13:29:20;;;;;;;;;;;;;;;26.22;29.22;100641.28;5077610;28;913;-32